Time;durP1;ratioP1;P1;durP2;ratioP2;P2;SDS_P1;SDS_P2;PMS_P1;PMS_P2;Temp;Humidity;BMP_temperature;BMP_pressure;BME280_temperature;BME280_humidity;BME280_pressure;Samples;Min_cycle;Max_cycle;Signal;HPM_P1;HPM_P2
2021/05/27 00:00:31;;;;;;;1.02;0.80;;;21.20;50.60;;;;;;5053185;28;20052;-58
2021/05/27 00:02:59;;;;;;;1.35;0.70;;;21.20;50.60;;;;;;5054854;28;20079;-58
2021/05/27 00:05:27;;;;;;;0.77;0.60;;;21.20;50.60;;;;;;5048542;28;20395;-54
2021/05/27 00:07:55;;;;;;;1.30;0.90;;;21.20;50.70;;;;;;5043583;28;20041;-56
2021/05/27 00:10:26;;;;;;;1.50;0.80;;;21.20;50.70;;;;;;5053100;28;20037;-57
2021/05/27 00:12:54;;;;;;;0.93;0.50;;;21.20;50.70;;;;;;5053080;28;20049;-58
2021/05/27 00:15:24;;;;;;;0.80;0.70;;;21.20;50.70;;;;;;5052887;28;20091;-57
2021/05/27 00:17:52;;;;;;;2.13;0.80;;;21.20;50.70;;;;;;5053129;28;20045;-56
2021/05/27 00:20:20;;;;;;;0.90;0.63;;;21.20;50.70;;;;;;5052005;28;20111;-57
2021/05/27 00:22:47;;;;;;;1.08;0.57;;;21.20;50.70;;;;;;5054105;28;20042;-55
2021/05/27 00:25:15;;;;;;;1.08;0.63;;;21.20;50.70;;;;;;5052679;28;20437;-57
2021/05/27 00:27:47;;;;;;;2.35;0.73;;;21.20;50.70;;;;;;5053108;28;20436;-56
2021/05/27 00:30:16;;;;;;;1.92;0.88;;;21.20;50.80;;;;;;5052415;28;20053;-55
2021/05/27 00:32:44;;;;;;;1.08;0.65;;;21.20;50.80;;;;;;5035428;28;20041;-57
2021/05/27 00:35:13;;;;;;;1.73;0.75;;;21.20;50.80;;;;;;5052792;28;20049;-56
2021/05/27 00:37:40;;;;;;;1.60;0.70;;;21.20;50.80;;;;;;5034092;28;20504;-58
2021/05/27 00:40:10;;;;;;;1.92;0.93;;;21.20;50.80;;;;;;5051874;28;20049;-55
2021/05/27 00:42:38;;;;;;;1.00;0.77;;;21.20;50.80;;;;;;5054090;28;20102;-58
2021/05/27 00:45:11;;;;;;;1.52;0.80;;;21.20;50.80;;;;;;5035975;28;20125;-58
2021/05/27 00:47:39;;;;;;;3.13;0.77;;;21.20;50.80;;;;;;5050025;28;20485;-56
2021/05/27 00:50:10;;;;;;;1.05;0.70;;;21.20;50.80;;;;;;5053460;28;20128;-55
2021/05/27 00:52:37;;;;;;;1.38;0.70;;;21.20;50.80;;;;;;5053200;28;20135;-55
2021/05/27 00:55:06;;;;;;;2.78;0.77;;;21.20;50.80;;;;;;5052681;28;20103;-57
2021/05/27 00:57:35;;;;;;;1.45;0.80;;;21.20;50.80;;;;;;5054393;28;20048;-55
2021/05/27 01:00:27;;;;;;;0.93;0.60;;;21.20;50.80;;;;;;5053352;28;20094;-57
2021/05/27 01:02:54;;;;;;;1.10;0.70;;;21.20;50.70;;;;;;5053565;28;20083;-56
2021/05/27 01:05:22;;;;;;;1.58;0.60;;;21.20;50.70;;;;;;5052414;28;20108;-54
2021/05/27 01:07:49;;;;;;;0.70;0.57;;;21.20;50.70;;;;;;5050456;28;20036;-56
2021/05/27 01:10:16;;;;;;;0.60;0.60;;;21.20;50.70;;;;;;5053147;28;20045;-57
2021/05/27 01:12:44;;;;;;;1.20;0.80;;;21.20;50.60;;;;;;5040702;28;20129;-58
2021/05/27 01:15:28;;;;;;;1.63;0.57;;;21.20;50.60;;;;;;5047573;28;20067;-57
2021/05/27 01:17:57;;;;;;;1.83;0.68;;;21.20;50.60;;;;;;5053108;28;20053;-58
2021/05/27 01:20:26;;;;;;;1.27;0.77;;;21.20;50.60;;;;;;5051213;28;20106;-57
2021/05/27 01:22:54;;;;;;;1.05;0.63;;;21.20;50.60;;;;;;5053030;28;20049;-58
2021/05/27 01:25:21;;;;;;;0.80;0.50;;;21.20;50.60;;;;;;5052064;28;20475;-57
2021/05/27 01:27:48;;;;;;;0.95;0.57;;;21.20;50.60;;;;;;5051587;28;20481;-56
2021/05/27 01:30:16;;;;;;;1.50;0.70;;;21.20;50.60;;;;;;5052712;28;20049;-55
2021/05/27 01:32:43;;;;;;;1.73;0.70;;;21.20;50.50;;;;;;5044995;28;20046;-58
2021/05/27 01:35:20;;;;;;;1.48;0.60;;;21.20;50.50;;;;;;5041817;28;20072;-56
2021/05/27 01:37:48;;;;;;;1.35;0.70;;;21.20;50.50;;;;;;5045103;28;20045;-57
2021/05/27 01:40:21;;;;;;;1.80;0.90;;;21.20;50.50;;;;;;5035453;28;20111;-58
2021/05/27 01:42:49;;;;;;;1.20;0.77;;;21.20;50.50;;;;;;5043162;28;20399;-58
2021/05/27 01:45:18;;;;;;;0.85;0.60;;;21.20;50.50;;;;;;5051113;28;20053;-58
2021/05/27 01:47:45;;;;;;;0.98;0.60;;;21.20;50.50;;;;;;5042344;28;20052;-58
2021/05/27 01:50:20;;;;;;;1.80;0.65;;;21.20;51.10;;;;;;5052549;28;20096;-56
2021/05/27 01:52:49;;;;;;;0.68;0.57;;;21.20;50.50;;;;;;5043645;28;20050;-54
2021/05/27 01:55:16;;;;;;;1.02;0.60;;;21.20;50.50;;;;;;5056912;28;20044;-57
2021/05/27 01:57:43;;;;;;;1.13;0.68;;;21.20;50.50;;;;;;5053678;28;20053;-58
2021/05/27 02:00:11;;;;;;;0.60;0.40;;;21.20;50.50;;;;;;5039609;28;20512;-56
2021/05/27 02:02:38;;;;;;;1.27;0.68;;;21.20;50.40;;;;;;5054410;28;20094;-56
2021/05/27 02:05:06;;;;;;;0.95;0.60;;;21.20;50.40;;;;;;5072745;28;20053;-56
2021/05/27 02:07:33;;;;;;;1.17;0.63;;;21.20;50.40;;;;;;5055409;28;20401;-58
2021/05/27 02:10:01;;;;;;;0.55;0.45;;;21.20;50.40;;;;;;5055771;28;20041;-58
2021/05/27 02:12:28;;;;;;;1.00;0.60;;;21.20;50.40;;;;;;5055717;28;20431;-57
2021/05/27 02:14:55;;;;;;;2.55;0.60;;;21.20;50.40;;;;;;5055697;28;20404;-57
2021/05/27 02:17:23;;;;;;;0.98;0.70;;;21.20;50.40;;;;;;5055454;28;20045;-57
2021/05/27 02:19:50;;;;;;;0.93;0.55;;;21.10;50.30;;;;;;5056470;28;20048;-58
2021/05/27 02:22:17;;;;;;;1.42;0.73;;;21.10;50.30;;;;;;5041672;28;20472;-57
2021/05/27 02:24:49;;;;;;;0.93;0.68;;;21.10;50.30;;;;;;5053686;28;20148;-58
2021/05/27 02:27:17;;;;;;;0.82;0.50;;;21.10;50.30;;;;;;5041385;28;20463;-58
2021/05/27 02:29:45;;;;;;;0.80;0.60;;;21.10;50.30;;;;;;5039815;28;20099;-58
2021/05/27 02:32:12;;;;;;;0.77;0.63;;;21.10;50.30;;;;;;5049610;28;20040;-56
2021/05/27 02:34:39;;;;;;;1.20;0.60;;;21.10;50.30;;;;;;5045178;28;20045;-55
2021/05/27 02:37:06;;;;;;;0.82;0.45;;;21.10;50.30;;;;;;5039883;28;20049;-58
2021/05/27 02:39:33;;;;;;;1.17;0.50;;;21.10;50.30;;;;;;5047324;28;20049;-57
2021/05/27 02:42:00;;;;;;;0.63;0.50;;;21.10;50.30;;;;;;5047573;28;20504;-58
2021/05/27 02:44:30;;;;;;;0.93;0.60;;;21.10;50.30;;;;;;5045886;28;20045;-56
2021/05/27 02:47:00;;;;;;;0.55;0.45;;;21.10;50.30;;;;;;5050060;28;20056;-58
2021/05/27 02:49:27;;;;;;;1.02;0.30;;;21.10;50.30;;;;;;5039555;28;20500;-56
2021/05/27 02:51:54;;;;;;;1.15;0.75;;;21.10;50.30;;;;;;5043440;28;20045;-58
2021/05/27 02:54:21;;;;;;;0.80;0.50;;;21.10;50.30;;;;;;5054794;28;20069;-57
2021/05/27 02:56:49;;;;;;;1.05;0.40;;;21.10;50.30;;;;;;5055595;28;20037;-57
2021/05/27 02:59:16;;;;;;;1.17;0.60;;;21.10;50.30;;;;;;5053055;28;20044;-55
2021/05/27 03:01:43;;;;;;;2.17;0.60;;;21.10;50.30;;;;;;5051958;28;20044;-56
2021/05/27 03:04:10;;;;;;;1.02;0.63;;;21.10;50.20;;;;;;5054725;28;20107;-57
2021/05/27 03:06:37;;;;;;;0.82;0.50;;;21.10;50.30;;;;;;5054148;28;20053;-57
2021/05/27 03:09:05;;;;;;;0.70;0.57;;;21.10;50.20;;;;;;5054056;28;20103;-56
2021/05/27 03:11:32;;;;;;;1.17;0.63;;;21.10;50.20;;;;;;5035898;28;20045;-58
2021/05/27 03:13:59;;;;;;;0.70;0.43;;;21.10;50.20;;;;;;5053506;28;20056;-57
2021/05/27 03:16:26;;;;;;;0.90;0.60;;;21.10;50.20;;;;;;5055038;28;20045;-58
2021/05/27 03:18:53;;;;;;;3.70;0.85;;;21.10;50.80;;;;;;5069406;28;20071;-58
2021/05/27 03:21:21;;;;;;;1.17;0.60;;;21.10;50.20;;;;;;5057524;28;20120;-57
2021/05/27 03:23:49;;;;;;;1.58;0.60;;;21.10;50.20;;;;;;5040660;28;20072;-58
2021/05/27 03:26:16;;;;;;;0.88;0.50;;;21.10;50.20;;;;;;5050096;28;20420;-55
2021/05/27 03:28:44;;;;;;;1.33;0.63;;;21.10;50.20;;;;;;5052684;28;20059;-57
2021/05/27 03:31:11;;;;;;;1.40;0.70;;;21.10;50.20;;;;;;5054021;28;20091;-55
2021/05/27 03:33:38;;;;;;;1.00;0.47;;;21.10;50.20;;;;;;5052646;28;20095;-57
2021/05/27 03:36:06;;;;;;;2.15;0.50;;;21.10;50.20;;;;;;5053825;28;20057;-56
2021/05/27 03:38:33;;;;;;;0.80;0.50;;;21.10;50.20;;;;;;5046053;28;20049;-57
2021/05/27 03:41:01;;;;;;;1.08;0.57;;;21.10;50.20;;;;;;5061212;28;20110;-57
2021/05/27 03:43:28;;;;;;;0.50;0.40;;;21.10;50.20;;;;;;5054593;28;20045;-58
2021/05/27 03:45:56;;;;;;;1.30;0.60;;;21.10;50.20;;;;;;5054905;28;20099;-57
2021/05/27 03:48:23;;;;;;;0.82;0.60;;;21.10;50.20;;;;;;5053366;28;20040;-56
2021/05/27 03:50:51;;;;;;;1.98;0.65;;;21.10;50.20;;;;;;5051202;28;20041;-56
2021/05/27 03:53:18;;;;;;;0.55;0.43;;;21.10;50.20;;;;;;5054236;28;20416;-54
2021/05/27 03:55:45;;;;;;;0.40;0.40;;;21.10;50.20;;;;;;5054143;28;20052;-55
2021/05/27 04:00:58;;;;;;;1.42;0.70;;;21.10;50.20;;;;;;5053243;28;20455;-56
2021/05/27 04:03:26;;;;;;;0.95;0.73;;;21.10;50.20;;;;;;5053403;28;20049;-57
2021/05/27 04:08:38;;;;;;;0.98;0.50;;;21.10;50.20;;;;;;5051815;28;20077;-57
2021/05/27 04:11:06;;;;;;;1.00;0.50;;;21.10;50.10;;;;;;5051919;28;20048;-55
2021/05/27 04:13:33;;;;;;;0.98;0.70;;;21.10;50.20;;;;;;5036888;28;20048;-58
2021/05/27 04:16:00;;;;;;;1.95;0.60;;;21.10;50.10;;;;;;5036454;28;20041;-56
2021/05/27 04:18:28;;;;;;;0.82;0.52;;;21.10;50.10;;;;;;5035426;28;20111;-56
2021/05/27 04:20:55;;;;;;;1.35;0.60;;;21.10;50.10;;;;;;5035917;28;20076;-56
2021/05/27 04:23:33;;;;;;;0.52;0.43;;;21.10;50.10;;;;;;5035791;28;20049;-56
2021/05/27 04:26:06;;;;;;;3.30;0.50;;;21.10;50.00;;;;;;5052447;28;20049;-57
2021/05/27 04:28:33;;;;;;;1.17;0.60;;;21.10;50.60;;;;;;5051547;28;20064;-59
2021/05/27 04:31:09;;;;;;;0.65;0.50;;;21.10;50.00;;;;;;5053954;28;20459;-57
2021/05/27 04:33:54;;;;;;;1.38;0.52;;;21.10;50.00;;;;;;5054202;28;20045;-56
2021/05/27 04:36:22;;;;;;;0.70;0.50;;;21.10;50.10;;;;;;5035192;28;20452;-57
2021/05/27 04:38:51;;;;;;;0.90;0.40;;;21.10;50.10;;;;;;5052859;28;20045;-57
2021/05/27 04:41:19;;;;;;;0.60;0.40;;;21.10;50.10;;;;;;5051608;28;20049;-54
2021/05/27 04:43:47;;;;;;;0.80;0.60;;;21.10;50.00;;;;;;5052899;28;20059;-57
2021/05/27 04:46:14;;;;;;;1.45;0.50;;;21.10;50.00;;;;;;5036897;28;20050;-56
2021/05/27 04:48:42;;;;;;;0.85;0.60;;;21.10;50.10;;;;;;5051100;28;20049;-58
2021/05/27 04:51:09;;;;;;;0.50;0.40;;;21.10;50.00;;;;;;5051514;28;20053;-56
2021/05/27 04:53:36;;;;;;;0.63;0.40;;;21.10;50.00;;;;;;5052458;28;20065;-57
2021/05/27 04:56:04;;;;;;;0.68;0.50;;;21.10;50.00;;;;;;5052532;28;20072;-55
2021/05/27 04:58:31;;;;;;;0.52;0.45;;;21.10;50.00;;;;;;5051832;28;20048;-56
2021/05/27 05:00:59;;;;;;;0.60;0.50;;;21.10;50.00;;;;;;5052108;28;20095;-56
2021/05/27 05:03:27;;;;;;;0.57;0.40;;;21.10;50.00;;;;;;5053562;28;20052;-58
2021/05/27 05:05:55;;;;;;;0.88;0.30;;;21.10;50.00;;;;;;5043346;28;20041;-58
2021/05/27 05:08:22;;;;;;;1.13;0.60;;;21.20;50.10;;;;;;5045017;28;20074;-55
2021/05/27 05:10:49;;;;;;;0.65;0.52;;;21.10;50.00;;;;;;5045779;28;20048;-55
2021/05/27 05:13:17;;;;;;;0.90;0.50;;;21.20;50.00;;;;;;5042040;28;20501;-56
2021/05/27 05:15:44;;;;;;;0.38;0.32;;;21.20;50.10;;;;;;5057316;28;20092;-57
2021/05/27 05:18:13;;;;;;;0.70;0.60;;;21.20;50.00;;;;;;5064335;28;20049;-53
2021/05/27 05:20:48;;;;;;;0.90;0.57;;;21.20;50.00;;;;;;5052258;28;20045;-57
2021/05/27 05:23:17;;;;;;;0.70;0.57;;;21.20;49.90;;;;;;5052003;28;20056;-58
2021/05/27 05:25:44;;;;;;;1.45;0.50;;;21.20;49.90;;;;;;5052171;28;20048;-58
2021/05/27 05:28:13;;;;;;;0.52;0.38;;;21.20;49.90;;;;;;5050050;28;20043;-58
2021/05/27 05:30:41;;;;;;;0.65;0.50;;;21.20;49.90;;;;;;5036626;28;20037;-56
2021/05/27 05:33:09;;;;;;;0.57;0.43;;;21.20;49.80;;;;;;5034752;28;20045;-56
2021/05/27 05:35:37;;;;;;;0.65;0.43;;;21.20;49.80;;;;;;5052247;28;20099;-57
2021/05/27 05:38:05;;;;;;;1.30;0.50;;;21.20;49.80;;;;;;5052252;28;20103;-55
2021/05/27 05:40:33;;;;;;;0.77;0.47;;;21.20;49.80;;;;;;5033302;28;20045;-54
2021/05/27 05:43:01;;;;;;;0.75;0.60;;;21.20;49.80;;;;;;5034024;28;20048;-57
2021/05/27 05:45:28;;;;;;;0.80;0.40;;;21.20;49.80;;;;;;5051906;28;20100;-58
2021/05/27 05:47:58;;;;;;;1.85;0.60;;;21.30;49.80;;;;;;5034363;28;20049;-58
2021/05/27 05:50:45;;;;;;;0.55;0.45;;;21.20;49.70;;;;;;5035670;28;20081;-58
2021/05/27 05:53:15;;;;;;;1.13;0.60;;;21.30;49.80;;;;;;5051478;28;20053;-55
2021/05/27 05:55:43;;;;;;;0.88;0.55;;;21.30;49.80;;;;;;5035185;28;20045;-56
2021/05/27 05:58:10;;;;;;;0.70;0.60;;;21.20;49.70;;;;;;5051128;28;20095;-56
2021/05/27 06:00:37;;;;;;;1.23;0.52;;;21.30;49.80;;;;;;5036293;28;20042;-59
2021/05/27 06:03:05;;;;;;;0.80;0.52;;;21.30;49.80;;;;;;5035496;28;20046;-58
2021/05/27 06:05:32;;;;;;;0.70;0.55;;;21.30;49.70;;;;;;5034776;28;20124;-57
2021/05/27 06:08:00;;;;;;;0.95;0.50;;;21.30;49.70;;;;;;5048575;28;20040;-56
2021/05/27 06:10:27;;;;;;;1.08;0.43;;;21.30;49.70;;;;;;5052564;28;20115;-57
2021/05/27 06:12:56;;;;;;;0.63;0.47;;;21.30;49.70;;;;;;5052543;28;20049;-54
2021/05/27 06:15:26;;;;;;;0.88;0.50;;;21.30;49.60;;;;;;5050192;28;20041;-57
2021/05/27 06:17:59;;;;;;;1.08;0.50;;;21.30;49.60;;;;;;5052557;28;20041;-56
2021/05/27 06:20:28;;;;;;;2.00;0.50;;;21.30;49.60;;;;;;5051335;28;20106;-54
2021/05/27 06:22:55;;;;;;;0.88;0.40;;;21.30;49.60;;;;;;5051585;28;20102;-56
2021/05/27 06:25:23;;;;;;;1.02;0.52;;;21.30;49.60;;;;;;5050135;28;20087;-58
2021/05/27 06:27:52;;;;;;;1.10;0.47;;;21.30;49.60;;;;;;5044364;28;20045;-58
2021/05/27 06:30:22;;;;;;;1.50;0.60;;;21.30;49.50;;;;;;5037014;28;20490;-57
2021/05/27 06:32:50;;;;;;;2.20;0.75;;;21.40;49.50;;;;;;5059599;28;20132;-58
2021/05/27 06:35:17;;;;;;;1.08;0.50;;;21.40;49.40;;;;;;5055784;28;20041;-55
2021/05/27 06:37:45;;;;;;;0.88;0.52;;;21.40;49.40;;;;;;5050892;28;20103;-57
2021/05/27 06:40:24;;;;;;;0.90;0.50;;;21.40;49.40;;;;;;5038930;28;20539;-55
2021/05/27 06:42:52;;;;;;;0.70;0.50;;;21.40;49.40;;;;;;5040013;28;20046;-57
2021/05/27 06:45:20;;;;;;;1.02;0.50;;;21.40;49.30;;;;;;5044683;28;20061;-59
2021/05/27 06:47:50;;;;;;;1.15;0.50;;;21.40;49.30;;;;;;5038337;28;20049;-58
2021/05/27 06:50:32;;;;;;;0.90;0.50;;;21.50;49.30;;;;;;5039586;28;20079;-57
2021/05/27 06:53:04;;;;;;;0.88;0.45;;;21.50;49.20;;;;;;5055449;28;20048;-57
2021/05/27 06:55:32;;;;;;;0.50;0.40;;;21.50;49.20;;;;;;5055583;28;20045;-55
2021/05/27 06:58:00;;;;;;;0.65;0.55;;;21.50;49.10;;;;;;5054298;28;20097;-58
2021/05/27 07:00:28;;;;;;;0.90;0.50;;;21.50;49.00;;;;;;5038994;28;20044;-58
2021/05/27 07:02:56;;;;;;;1.23;0.68;;;21.60;49.00;;;;;;5037986;28;20044;-55
2021/05/27 07:05:24;;;;;;;1.00;0.70;;;21.60;49.00;;;;;;5038734;28;20105;-55
2021/05/27 07:07:51;;;;;;;1.23;0.70;;;21.70;49.00;;;;;;5053083;28;20086;-55
2021/05/27 07:10:18;;;;;;;1.63;0.65;;;21.70;48.80;;;;;;5036998;28;20401;-57
2021/05/27 07:12:50;;;;;;;0.80;0.43;;;21.80;48.80;;;;;;5055429;28;20045;-58
2021/05/27 07:15:20;;;;;;;0.90;0.43;;;21.90;48.70;;;;;;5053099;28;20041;-57
2021/05/27 07:17:48;;;;;;;1.10;0.65;;;21.90;48.60;;;;;;5036518;28;20053;-58
2021/05/27 07:20:16;;;;;;;0.82;0.68;;;22.00;48.50;;;;;;5055889;28;20400;-56
2021/05/27 07:22:44;;;;;;;1.55;0.75;;;22.00;48.40;;;;;;5054884;28;20048;-57
2021/05/27 07:25:12;;;;;;;1.35;0.60;;;22.00;48.30;;;;;;5068320;28;20102;-57
2021/05/27 07:27:39;;;;;;;0.57;0.43;;;22.10;48.30;;;;;;5057102;28;20099;-56
2021/05/27 07:30:08;;;;;;;0.82;0.55;;;22.10;48.20;;;;;;5041396;28;20050;-57
2021/05/27 07:32:36;;;;;;;0.80;0.50;;;22.10;48.20;;;;;;5048903;28;20075;-59
2021/05/27 07:35:06;;;;;;;1.83;0.65;;;22.10;48.20;;;;;;5052396;28;20048;-58
2021/05/27 07:37:33;;;;;;;0.45;0.40;;;22.10;48.10;;;;;;5053936;28;20045;-58
2021/05/27 07:40:00;;;;;;;1.10;0.50;;;22.10;48.10;;;;;;5053255;28;20045;-57
2021/05/27 07:42:27;;;;;;;1.17;0.60;;;22.10;48.10;;;;;;5054696;28;20106;-56
2021/05/27 07:44:54;;;;;;;0.77;0.60;;;22.10;48.10;;;;;;5067956;28;20040;-58
2021/05/27 07:47:22;;;;;;;0.65;0.47;;;22.00;48.10;;;;;;5047410;28;20052;-58
2021/05/27 07:49:49;;;;;;;1.17;0.80;;;22.00;48.10;;;;;;5042704;28;20473;-57
2021/05/27 07:52:16;;;;;;;1.33;0.60;;;22.00;48.10;;;;;;5053142;28;20107;-58
2021/05/27 07:54:43;;;;;;;0.70;0.40;;;22.00;48.10;;;;;;5053582;28;20049;-59
2021/05/27 07:57:11;;;;;;;0.73;0.60;;;22.10;48.20;;;;;;5053429;28;20818;-58
2021/05/27 07:59:38;;;;;;;0.70;0.50;;;22.10;48.10;;;;;;5053052;28;20393;-58
2021/05/27 08:02:05;;;;;;;1.35;0.68;;;22.10;48.10;;;;;;5052548;28;20124;-58
2021/05/27 08:04:33;;;;;;;1.85;0.60;;;22.10;48.10;;;;;;5037117;28;20382;-57
2021/05/27 08:07:00;;;;;;;1.55;0.40;;;22.10;48.10;;;;;;5046452;28;20055;-58
2021/05/27 08:09:27;;;;;;;0.68;0.40;;;22.10;48.10;;;;;;5053777;28;20477;-57
2021/05/27 08:11:54;;;;;;;0.77;0.50;;;22.00;48.00;;;;;;5052919;28;20052;-58
2021/05/27 08:14:21;;;;;;;0.38;0.30;;;22.00;48.10;;;;;;5036122;28;20440;-58
2021/05/27 08:16:49;;;;;;;1.05;0.50;;;22.00;48.10;;;;;;5053059;28;20056;-59
2021/05/27 08:19:16;;;;;;;1.45;0.60;;;22.00;48.10;;;;;;5054020;28;20209;-57
2021/05/27 08:21:44;;;;;;;1.98;0.63;;;22.00;48.20;;;;;;5053024;28;20045;-58
2021/05/27 08:24:11;;;;;;;1.05;0.50;;;22.00;48.10;;;;;;5053119;28;20049;-58
2021/05/27 08:26:38;;;;;;;2.67;0.70;;;22.10;48.20;;;;;;5053816;28;20489;-58
2021/05/27 08:29:05;;;;;;;0.40;0.40;;;22.10;48.10;;;;;;5040766;28;20088;-59
2021/05/27 08:31:32;;;;;;;0.40;0.40;;;22.10;48.10;;;;;;5037778;28;20119;-57
2021/05/27 08:33:59;;;;;;;1.70;0.50;;;22.10;48.10;;;;;;5045537;28;20382;-56
2021/05/27 08:36:26;;;;;;;0.60;0.47;;;22.10;48.10;;;;;;5043449;28;20091;-55
2021/05/27 08:38:54;;;;;;;0.85;0.50;;;22.10;48.00;;;;;;5044533;28;20044;-58
2021/05/27 08:41:21;;;;;;;0.77;0.40;;;22.10;48.00;;;;;;5059459;28;20045;-58
2021/05/27 08:43:49;;;;;;;0.75;0.45;;;22.10;48.00;;;;;;5036268;28;20087;-57
2021/05/27 08:46:17;;;;;;;1.40;0.50;;;22.10;48.00;;;;;;5037493;28;20409;-57
2021/05/27 08:48:44;;;;;;;0.52;0.45;;;22.20;48.00;;;;;;5040268;28;20099;-58
2021/05/27 08:51:12;;;;;;;0.45;0.40;;;22.20;47.90;;;;;;5051916;28;20094;-58
2021/05/27 08:53:40;;;;;;;1.73;0.50;;;22.20;47.80;;;;;;5049882;28;20061;-58
2021/05/27 08:56:07;;;;;;;1.27;0.50;;;22.30;47.90;;;;;;5035688;28;20451;-59
2021/05/27 08:58:34;;;;;;;0.93;0.55;;;22.30;47.80;;;;;;5035942;28;20118;-58
2021/05/27 09:01:02;;;;;;;0.60;0.43;;;22.30;47.80;;;;;;5035834;28;20049;-59
2021/05/27 09:03:58;;;;;;;0.63;0.43;;;22.30;47.70;;;;;;5036402;28;20438;-58
2021/05/27 09:06:26;;;;;;;0.82;0.50;;;22.30;47.70;;;;;;5023448;28;20127;-58
2021/05/27 09:09:05;;;;;;;0.50;0.40;;;22.30;47.80;;;;;;5053054;28;20044;-58
2021/05/27 09:11:38;;;;;;;1.20;0.60;;;22.30;47.80;;;;;;5049937;28;20099;-59
2021/05/27 09:14:06;;;;;;;0.60;0.43;;;22.30;47.80;;;;;;5037371;28;20044;-58
2021/05/27 09:16:34;;;;;;;0.85;0.60;;;22.30;47.60;;;;;;5037945;28;20388;-58
2021/05/27 09:19:18;;;;;;;1.00;0.38;;;22.40;47.60;;;;;;5051996;28;20401;-56
2021/05/27 09:21:46;;;;;;;0.68;0.52;;;22.40;47.60;;;;;;5037272;28;20050;-58
2021/05/27 09:24:13;;;;;;;1.23;0.60;;;22.50;47.50;;;;;;5053255;28;20457;-53
2021/05/27 09:26:51;;;;;;;0.60;0.50;;;22.50;47.40;;;;;;5052818;28;20041;-57
2021/05/27 09:29:22;;;;;;;0.88;0.35;;;22.60;47.30;;;;;;5035743;28;20493;-58
2021/05/27 09:32:05;;;;;;;0.70;0.50;;;22.70;47.20;;;;;;5051736;28;20048;-59
2021/05/27 09:34:58;;;;;;;0.83;0.50;;;22.70;47.10;;;;;;5036651;28;20041;-59
2021/05/27 09:37:30;;;;;;;0.45;0.30;;;22.70;47.00;;;;;;5045244;28;20130;-58
2021/05/27 09:39:59;;;;;;;0.50;0.40;;;22.80;47.00;;;;;;5035572;28;20079;-58
2021/05/27 09:42:29;;;;;;;0.80;0.52;;;22.80;47.00;;;;;;5035107;28;20048;-58
2021/05/27 09:44:56;;;;;;;0.60;0.40;;;22.80;46.80;;;;;;5035265;28;20468;-58
2021/05/27 09:47:34;;;;;;;0.93;0.55;;;22.80;46.80;;;;;;5049325;28;20060;-59
2021/05/27 09:50:08;;;;;;;0.80;0.68;;;22.90;46.80;;;;;;5037326;28;20098;-59
2021/05/27 09:52:41;;;;;;;2.35;0.47;;;22.90;46.80;;;;;;5051650;28;20079;-58
2021/05/27 09:55:13;;;;;;;0.93;0.60;;;22.80;46.70;;;;;;5049947;28;20041;-59
2021/05/27 09:57:43;;;;;;;0.65;0.40;;;22.80;46.80;;;;;;5039275;28;20045;-57
2021/05/27 10:00:22;;;;;;;0.73;0.50;;;22.80;46.80;;;;;;5050349;28;20044;-58
2021/05/27 10:02:50;;;;;;;0.55;0.40;;;22.80;47.00;;;;;;5037092;28;20048;-58
2021/05/27 10:05:19;;;;;;;0.57;0.40;;;22.70;47.00;;;;;;5039403;28;20131;-59
2021/05/27 10:07:51;;;;;;;1.55;0.40;;;22.70;47.10;;;;;;5056053;28;20045;-58
2021/05/27 10:10:40;;;;;;;0.60;0.45;;;22.70;47.20;;;;;;5052933;28;20044;-56
2021/05/27 10:13:09;;;;;;;0.70;0.47;;;22.70;47.30;;;;;;5040007;28;20052;-58
2021/05/27 10:15:37;;;;;;;1.10;0.63;;;22.70;47.30;;;;;;5041548;28;20037;-58
2021/05/27 10:18:05;;;;;;;1.30;0.45;;;22.60;47.40;;;;;;5056022;28;20053;-58
2021/05/27 10:20:33;;;;;;;0.88;0.32;;;22.60;47.30;;;;;;5054910;28;20045;-56
2021/05/27 10:23:03;;;;;;;0.50;0.50;;;22.60;47.30;;;;;;5038096;28;20053;-57
2021/05/27 10:25:31;;;;;;;1.38;0.70;;;22.60;47.40;;;;;;5055102;28;20052;-59
2021/05/27 10:28:01;;;;;;;1.33;0.60;;;22.60;47.40;;;;;;5055296;28;20098;-58
2021/05/27 10:30:33;;;;;;;1.08;0.55;;;22.50;47.40;;;;;;5070824;28;20044;-57
2021/05/27 10:33:04;;;;;;;0.75;0.60;;;22.50;47.40;;;;;;5054405;28;20124;-59
2021/05/27 10:36:10;;;;;;;0.70;0.55;;;22.50;47.40;;;;;;5054411;28;20477;-58
2021/05/27 10:38:41;;;;;;;0.65;0.52;;;22.50;47.40;;;;;;5036308;28;20394;-58
2021/05/27 10:41:12;;;;;;;0.52;0.45;;;22.50;47.40;;;;;;5056052;28;20091;-59
2021/05/27 10:44:01;;;;;;;1.27;0.52;;;22.50;47.50;;;;;;5051393;28;20439;-58
2021/05/27 10:46:53;;;;;;;0.95;0.55;;;22.50;47.50;;;;;;5038099;28;20051;-58
2021/05/27 10:49:38;;;;;;;0.57;0.40;;;22.60;47.60;;;;;;5038006;28;20099;-57
2021/05/27 10:52:29;;;;;;;1.27;0.80;;;22.60;47.40;;;;;;5038466;28;20119;-59
2021/05/27 10:54:56;;;;;;;5.45;0.77;;;22.60;47.40;;;;;;5046378;28;20168;-57
2021/05/27 10:57:39;;;;;;;4.55;0.77;;;22.70;47.50;;;;;;5046996;28;20049;-58
2021/05/27 11:00:16;;;;;;;10.73;0.85;;;22.70;47.40;;;;;;5038933;28;20391;-53
2021/05/27 11:02:44;;;;;;;4.28;0.98;;;22.70;47.50;;;;;;5046939;28;20048;-57
2021/05/27 11:05:17;;;;;;;3.55;1.20;;;22.70;47.50;;;;;;5055252;28;20103;-55
2021/05/27 11:08:18;;;;;;;9.18;0.80;;;22.70;47.50;;;;;;5053787;28;20090;-57
2021/05/27 11:10:49;;;;;;;5.95;1.00;;;22.70;47.60;;;;;;5054218;28;20045;-58
2021/05/27 11:13:16;;;;;;;4.20;1.17;;;22.70;47.60;;;;;;5043020;28;20082;-56
2021/05/27 11:16:03;;;;;;;6.18;0.80;;;22.70;47.60;;;;;;5037947;28;20041;-57
2021/05/27 11:18:36;;;;;;;3.70;1.00;;;22.70;47.60;;;;;;5049822;28;20073;-58
2021/05/27 11:21:32;;;;;;;6.43;1.63;;;22.80;47.60;;;;;;5054310;28;20481;-57
2021/05/27 11:24:55;;;;;;;6.07;0.82;;;22.80;47.60;;;;;;5054194;28;20049;-58
2021/05/27 11:27:27;;;;;;;4.28;1.10;;;22.80;47.60;;;;;;5030157;28;20053;-57
2021/05/27 11:30:13;;;;;;;6.35;0.95;;;22.80;47.60;;;;;;5038434;28;20041;-58
2021/05/27 11:32:41;;;;;;;3.40;1.00;;;22.80;47.60;;;;;;5054219;28;20097;-57
2021/05/27 11:35:08;;;;;;;10.23;1.33;;;22.80;47.60;;;;;;5036961;28;20558;-57
2021/05/27 11:37:37;;;;;;;3.33;1.55;;;22.80;47.60;;;;;;5053869;28;20037;-58
2021/05/27 11:40:08;;;;;;;4.45;0.90;;;22.80;47.60;;;;;;5055290;28;20071;-57
2021/05/27 11:42:35;;;;;;;8.10;1.42;;;22.80;47.60;;;;;;5036335;28;20046;-57
2021/05/27 11:45:06;;;;;;;5.07;1.10;;;22.70;47.60;;;;;;5053411;28;20053;-57
2021/05/27 11:47:33;;;;;;;7.60;1.10;;;22.70;47.80;;;;;;5052351;28;20048;-57
2021/05/27 11:50:10;;;;;;;5.15;0.90;;;22.70;47.90;;;;;;5052779;28;20049;-57
2021/05/27 11:52:39;;;;;;;9.25;1.33;;;22.60;47.90;;;;;;5052805;28;20068;-55
2021/05/27 11:55:12;;;;;;;3.67;1.27;;;22.60;48.00;;;;;;5051441;28;20068;-57
2021/05/27 11:57:49;;;;;;;6.10;1.40;;;22.60;48.20;;;;;;5051607;28;20052;-57
2021/05/27 12:00:19;;;;;;;7.80;1.20;;;22.50;48.20;;;;;;5051592;28;20049;-57
2021/05/27 12:02:49;;;;;;;3.15;1.15;;;22.50;48.30;;;;;;5051917;28;20044;-57
2021/05/27 12:05:29;;;;;;;4.65;1.27;;;22.40;48.40;;;;;;5039667;28;20052;-57
2021/05/27 12:08:02;;;;;;;6.75;1.35;;;22.40;48.60;;;;;;5045289;28;20094;-57
2021/05/27 12:10:32;;;;;;;9.73;1.45;;;22.40;48.70;;;;;;5038592;28;20133;-59
2021/05/27 12:12:59;;;;;;;3.67;1.10;;;22.30;48.70;;;;;;5050797;28;20094;-57
2021/05/27 12:15:28;;;;;;;4.32;1.27;;;22.30;48.90;;;;;;5041439;28;20080;-58
2021/05/27 12:17:58;;;;;;;3.90;1.17;;;22.30;48.90;;;;;;5054277;28;20052;-57
2021/05/27 12:20:34;;;;;;;3.17;1.45;;;22.30;49.00;;;;;;5041695;28;20060;-56
2021/05/27 12:23:11;;;;;;;3.22;0.90;;;22.20;49.00;;;;;;5049131;28;20416;-57
2021/05/27 12:25:42;;;;;;;5.30;1.42;;;22.20;49.10;;;;;;5040995;28;20108;-57
2021/05/27 12:28:17;;;;;;;9.98;1.20;;;22.20;49.30;;;;;;5036042;28;20049;-57
2021/05/27 12:30:51;;;;;;;9.95;1.50;;;22.10;49.30;;;;;;5049215;28;20075;-57
2021/05/27 12:33:20;;;;;;;6.05;1.40;;;22.10;49.40;;;;;;5050607;28;20102;-57
2021/05/27 12:35:50;;;;;;;2.47;0.88;;;22.00;49.40;;;;;;5046765;28;20048;-56
2021/05/27 12:38:27;;;;;;;3.88;1.42;;;22.00;49.50;;;;;;5052871;28;20098;-58
2021/05/27 12:40:58;;;;;;;5.38;1.42;;;22.00;49.60;;;;;;5052642;28;20441;-57
2021/05/27 12:43:33;;;;;;;4.55;1.17;;;22.00;49.70;;;;;;5052110;28;20045;-57
2021/05/27 12:46:06;;;;;;;7.65;1.20;;;22.00;49.80;;;;;;5052407;28;20052;-57
2021/05/27 12:48:51;;;;;;;4.60;1.00;;;22.00;49.80;;;;;;5052828;28;20102;-57
2021/05/27 12:51:20;;;;;;;5.40;1.10;;;21.90;49.80;;;;;;5053586;28;20071;-55
2021/05/27 12:53:48;;;;;;;6.32;1.35;;;21.90;49.80;;;;;;5040428;28;20057;-57
2021/05/27 12:56:30;;;;;;;11.80;1.67;;;21.90;49.80;;;;;;5047381;28;20069;-57
2021/05/27 12:59:06;;;;;;;7.65;1.35;;;22.00;50.00;;;;;;5051983;28;20095;-56
2021/05/27 13:01:37;;;;;;;10.30;1.85;;;21.90;49.90;;;;;;5053277;28;20083;-57
2021/05/27 13:04:06;;;;;;;4.07;1.33;;;21.90;50.00;;;;;;5040257;28;20053;-57
2021/05/27 13:06:44;;;;;;;5.70;1.67;;;21.90;50.00;;;;;;5041270;28;20053;-57